sensor_id;sensor_type;location;lat;lon;timestamp;P1;durP1;ratioP1;P2;durP2;ratioP2
27979;SDS011;15315;50.836;4.430;2023-02-23T00:03:31;80.07;;;42.63;;
27979;SDS011;15315;50.836;4.430;2023-02-23T00:13:32;76.00;;;40.75;;
27979;SDS011;15315;50.836;4.430;2023-02-23T00:23:36;73.13;;;41.57;;
27979;SDS011;15315;50.836;4.430;2023-02-23T00:33:37;72.88;;;39.63;;
27979;SDS011;15315;50.836;4.430;2023-02-23T00:43:40;60.60;;;34.35;;
27979;SDS011;15315;50.836;4.430;2023-02-23T00:53:46;61.70;;;34.42;;
27979;SDS011;15315;50.836;4.430;2023-02-23T01:03:47;55.17;;;32.65;;
27979;SDS011;15315;50.836;4.430;2023-02-23T01:13:49;50.67;;;29.20;;
27979;SDS011;15315;50.836;4.430;2023-02-23T01:23:51;48.72;;;29.83;;
27979;SDS011;15315;50.836;4.430;2023-02-23T01:33:56;45.35;;;28.70;;
27979;SDS011;15315;50.836;4.430;2023-02-23T01:44:05;51.38;;;29.90;;
27979;SDS011;15315;50.836;4.430;2023-02-23T01:54:41;53.55;;;31.80;;
27979;SDS011;15315;50.836;4.430;2023-02-23T02:04:37;67.40;;;36.13;;
27979;SDS011;15315;50.836;4.430;2023-02-23T02:14:46;64.70;;;34.55;;
27979;SDS011;15315;50.836;4.430;2023-02-23T02:56:17;103.13;;;42.72;;
27979;SDS011;15315;50.836;4.430;2023-02-23T03:06:23;101.80;;;42.37;;
27979;SDS011;15315;50.836;4.430;2023-02-23T03:37:54;124.13;;;46.75;;
27979;SDS011;15315;50.836;4.430;2023-02-23T03:48:21;132.35;;;47.42;;
27979;SDS011;15315;50.836;4.430;2023-02-23T03:58:48;125.65;;;41.72;;
27979;SDS011;15315;50.836;4.430;2023-02-23T04:09:11;123.68;;;40.85;;
27979;SDS011;15315;50.836;4.430;2023-02-23T04:19:31;104.80;;;39.53;;
27979;SDS011;15315;50.836;4.430;2023-02-23T04:29:31;107.97;;;40.35;;
27979;SDS011;15315;50.836;4.430;2023-02-23T04:39:31;129.75;;;44.70;;
27979;SDS011;15315;50.836;4.430;2023-02-23T04:49:32;110.95;;;41.50;;
27979;SDS011;15315;50.836;4.430;2023-02-23T04:59:34;94.35;;;38.38;;
27979;SDS011;15315;50.836;4.430;2023-02-23T05:09:35;98.28;;;39.22;;
27979;SDS011;15315;50.836;4.430;2023-02-23T05:19:35;95.90;;;40.42;;
27979;SDS011;15315;50.836;4.430;2023-02-23T05:29:36;111.72;;;45.35;;
27979;SDS011;15315;50.836;4.430;2023-02-23T05:39:37;114.32;;;45.60;;
27979;SDS011;15315;50.836;4.430;2023-02-23T05:49:37;114.10;;;47.13;;
27979;SDS011;15315;50.836;4.430;2023-02-23T05:59:38;112.38;;;47.72;;
27979;SDS011;15315;50.836;4.430;2023-02-23T06:09:38;128.45;;;48.88;;
27979;SDS011;15315;50.836;4.430;2023-02-23T06:19:39;121.80;;;48.70;;
27979;SDS011;15315;50.836;4.430;2023-02-23T06:29:40;120.43;;;48.58;;
27979;SDS011;15315;50.836;4.430;2023-02-23T06:39:41;107.57;;;45.63;;
27979;SDS011;15315;50.836;4.430;2023-02-23T06:49:41;99.68;;;44.58;;
27979;SDS011;15315;50.836;4.430;2023-02-23T06:59:41;103.20;;;43.58;;
27979;SDS011;15315;50.836;4.430;2023-02-23T07:09:42;102.40;;;43.00;;
27979;SDS011;15315;50.836;4.430;2023-02-23T07:19:43;95.68;;;40.25;;
27979;SDS011;15315;50.836;4.430;2023-02-23T07:29:43;101.75;;;40.17;;
27979;SDS011;15315;50.836;4.430;2023-02-23T07:39:46;85.93;;;38.92;;
27979;SDS011;15315;50.836;4.430;2023-02-23T07:49:47;93.07;;;39.20;;
27979;SDS011;15315;50.836;4.430;2023-02-23T07:59:48;88.75;;;38.45;;
27979;SDS011;15315;50.836;4.430;2023-02-23T08:09:48;90.38;;;40.08;;
27979;SDS011;15315;50.836;4.430;2023-02-23T08:19:48;92.28;;;42.20;;
27979;SDS011;15315;50.836;4.430;2023-02-23T08:29:49;107.75;;;46.80;;
27979;SDS011;15315;50.836;4.430;2023-02-23T08:39:52;109.00;;;46.25;;
27979;SDS011;15315;50.836;4.430;2023-02-23T08:49:53;104.85;;;46.78;;
27979;SDS011;15315;50.836;4.430;2023-02-23T08:59:53;112.15;;;48.22;;
27979;SDS011;15315;50.836;4.430;2023-02-23T09:09:54;105.18;;;46.33;;
27979;SDS011;15315;50.836;4.430;2023-02-23T09:19:55;110.85;;;49.35;;
27979;SDS011;15315;50.836;4.430;2023-02-23T09:29:57;105.88;;;47.50;;
27979;SDS011;15315;50.836;4.430;2023-02-23T09:39:57;103.70;;;48.15;;
27979;SDS011;15315;50.836;4.430;2023-02-23T09:49:58;98.00;;;46.58;;
27979;SDS011;15315;50.836;4.430;2023-02-23T10:00:02;110.27;;;48.30;;
27979;SDS011;15315;50.836;4.430;2023-02-23T10:10:16;115.30;;;52.67;;
27979;SDS011;15315;50.836;4.430;2023-02-23T10:20:31;110.60;;;51.50;;
27979;SDS011;15315;50.836;4.430;2023-02-23T10:30:39;98.97;;;48.22;;
27979;SDS011;15315;50.836;4.430;2023-02-23T10:40:40;92.13;;;43.35;;
27979;SDS011;15315;50.836;4.430;2023-02-23T10:50:42;93.53;;;48.80;;
27979;SDS011;15315;50.836;4.430;2023-02-23T11:00:52;76.63;;;39.25;;
27979;SDS011;15315;50.836;4.430;2023-02-23T11:20:56;73.63;;;37.03;;
27979;SDS011;15315;50.836;4.430;2023-02-23T11:31:08;70.53;;;36.22;;
27979;SDS011;15315;50.836;4.430;2023-02-23T11:41:17;63.65;;;34.45;;
27979;SDS011;15315;50.836;4.430;2023-02-23T11:51:39;81.60;;;40.72;;
27979;SDS011;15315;50.836;4.430;2023-02-23T12:01:52;77.87;;;38.60;;
27979;SDS011;15315;50.836;4.430;2023-02-23T12:12:01;65.45;;;35.67;;
27979;SDS011;15315;50.836;4.430;2023-02-23T12:22:19;83.50;;;44.08;;
27979;SDS011;15315;50.836;4.430;2023-02-23T12:32:24;89.68;;;46.42;;
27979;SDS011;15315;50.836;4.430;2023-02-23T12:42:39;94.63;;;47.03;;
27979;SDS011;15315;50.836;4.430;2023-02-23T13:02:59;81.88;;;44.03;;
27979;SDS011;15315;50.836;4.430;2023-02-23T13:23:50;78.53;;;44.85;;
27979;SDS011;15315;50.836;4.430;2023-02-23T13:33:58;84.35;;;47.38;;
27979;SDS011;15315;50.836;4.430;2023-02-23T13:44:22;82.13;;;45.13;;
27979;SDS011;15315;50.836;4.430;2023-02-23T13:54:32;89.28;;;46.80;;
27979;SDS011;15315;50.836;4.430;2023-02-23T14:04:34;71.43;;;37.42;;
27979;SDS011;15315;50.836;4.430;2023-02-23T14:24:36;65.63;;;30.50;;
27979;SDS011;15315;50.836;4.430;2023-02-23T14:34:44;53.08;;;28.42;;
27979;SDS011;15315;50.836;4.430;2023-02-23T14:44:52;48.80;;;25.33;;
27979;SDS011;15315;50.836;4.430;2023-02-23T14:55:13;48.00;;;24.65;;
27979;SDS011;15315;50.836;4.430;2023-02-23T15:05:36;42.25;;;22.90;;
27979;SDS011;15315;50.836;4.430;2023-02-23T15:15:43;41.33;;;22.27;;
27979;SDS011;15315;50.836;4.430;2023-02-23T15:25:45;44.25;;;23.00;;
27979;SDS011;15315;50.836;4.430;2023-02-23T15:46:06;37.58;;;19.58;;
27979;SDS011;15315;50.836;4.430;2023-02-23T15:56:10;36.72;;;19.42;;
27979;SDS011;15315;50.836;4.430;2023-02-23T16:06:25;32.00;;;15.85;;
27979;SDS011;15315;50.836;4.430;2023-02-23T16:16:33;37.00;;;17.17;;
27979;SDS011;15315;50.836;4.430;2023-02-23T16:26:36;30.77;;;17.17;;
27979;SDS011;15315;50.836;4.430;2023-02-23T16:36:43;28.05;;;16.85;;
27979;SDS011;15315;50.836;4.430;2023-02-23T16:57:01;25.35;;;15.88;;
27979;SDS011;15315;50.836;4.430;2023-02-23T17:07:05;27.02;;;16.08;;
27979;SDS011;15315;50.836;4.430;2023-02-23T17:17:05;27.80;;;16.27;;
27979;SDS011;15315;50.836;4.430;2023-02-23T17:27:10;21.88;;;15.07;;
27979;SDS011;15315;50.836;4.430;2023-02-23T17:37:10;24.50;;;16.05;;
27979;SDS011;15315;50.836;4.430;2023-02-23T17:47:10;26.58;;;17.30;;
27979;SDS011;15315;50.836;4.430;2023-02-23T17:57:11;24.52;;;15.60;;
27979;SDS011;15315;50.836;4.430;2023-02-23T18:07:12;20.60;;;14.38;;
27979;SDS011;15315;50.836;4.430;2023-02-23T18:17:14;18.50;;;12.70;;
27979;SDS011;15315;50.836;4.430;2023-02-23T18:27:14;19.17;;;12.90;;
27979;SDS011;15315;50.836;4.430;2023-02-23T18:37:15;21.92;;;14.23;;
27979;SDS011;15315;50.836;4.430;2023-02-23T18:47:20;24.75;;;15.63;;
27979;SDS011;15315;50.836;4.430;2023-02-23T18:57:20;19.45;;;13.02;;
27979;SDS011;15315;50.836;4.430;2023-02-23T19:07:21;22.08;;;13.02;;
27979;SDS011;15315;50.836;4.430;2023-02-23T19:17:21;33.28;;;18.55;;
27979;SDS011;15315;50.836;4.430;2023-02-23T19:27:23;32.85;;;18.10;;
27979;SDS011;15315;50.836;4.430;2023-02-23T19:37:23;37.40;;;17.90;;
27979;SDS011;15315;50.836;4.430;2023-02-23T19:47:24;29.88;;;15.32;;
27979;SDS011;15315;50.836;4.430;2023-02-23T19:57:24;28.40;;;15.77;;
27979;SDS011;15315;50.836;4.430;2023-02-23T20:07:25;40.17;;;20.70;;
27979;SDS011;15315;50.836;4.430;2023-02-23T20:17:25;40.20;;;22.77;;
27979;SDS011;15315;50.836;4.430;2023-02-23T20:27:25;39.25;;;23.23;;
27979;SDS011;15315;50.836;4.430;2023-02-23T20:37:28;45.17;;;25.65;;
27979;SDS011;15315;50.836;4.430;2023-02-23T20:47:29;61.30;;;30.63;;
27979;SDS011;15315;50.836;4.430;2023-02-23T20:57:32;43.50;;;21.08;;
27979;SDS011;15315;50.836;4.430;2023-02-23T21:07:33;32.83;;;12.45;;
27979;SDS011;15315;50.836;4.430;2023-02-23T21:17:34;32.30;;;9.60;;
27979;SDS011;15315;50.836;4.430;2023-02-23T21:27:37;30.63;;;9.95;;
27979;SDS011;15315;50.836;4.430;2023-02-23T21:37:38;45.60;;;11.05;;
27979;SDS011;15315;50.836;4.430;2023-02-23T21:47:41;33.13;;;9.82;;
27979;SDS011;15315;50.836;4.430;2023-02-23T21:57:43;36.23;;;9.43;;
27979;SDS011;15315;50.836;4.430;2023-02-23T22:07:48;44.10;;;10.65;;
27979;SDS011;15315;50.836;4.430;2023-02-23T22:17:49;37.45;;;9.90;;
27979;SDS011;15315;50.836;4.430;2023-02-23T22:27:50;35.80;;;10.13;;
27979;SDS011;15315;50.836;4.430;2023-02-23T22:37:50;25.63;;;9.70;;
27979;SDS011;15315;50.836;4.430;2023-02-23T22:47:51;22.40;;;8.88;;
27979;SDS011;15315;50.836;4.430;2023-02-23T22:57:51;36.05;;;5.47;;
27979;SDS011;15315;50.836;4.430;2023-02-23T23:07:52;32.00;;;5.13;;
27979;SDS011;15315;50.836;4.430;2023-02-23T23:17:54;26.30;;;4.18;;
27979;SDS011;15315;50.836;4.430;2023-02-23T23:27:55;31.15;;;5.20;;
27979;SDS011;15315;50.836;4.430;2023-02-23T23:37:55;27.73;;;4.30;;
27979;SDS011;15315;50.836;4.430;2023-02-23T23:47:55;33.47;;;4.60;;
27979;SDS011;15315;50.836;4.430;2023-02-23T23:57:56;29.83;;;5.13;;
